Time;durP1;ratioP1;P1;durP2;ratioP2;P2;SDS_P1;SDS_P2;PMS_P1;PMS_P2;Temp;Humidity;BMP_temperature;BMP_pressure;BME280_temperature;BME280_humidity;BME280_pressure;Samples;Min_cycle;Max_cycle;Signal;HPM_P1;HPM_P2
2021/06/06 00:00:33;;;;;;;0.00;0.00;;;13.70;99.90;;;;;;5057015;28;20441;-72
2021/06/06 00:03:00;;;;;;;0.10;0.10;;;13.80;99.90;;;;;;5056880;28;20017;-72
2021/06/06 00:05:37;;;;;;;0.00;0.00;;;13.80;99.90;;;;;;5075067;28;20025;-72
2021/06/06 00:08:03;;;;;;;0.00;0.00;;;13.80;99.90;;;;;;5074833;28;20028;-72
2021/06/06 00:10:29;;;;;;;0.00;0.00;;;13.70;99.90;;;;;;5074634;28;20028;-71
2021/06/06 00:12:55;;;;;;;0.20;0.00;;;13.80;99.90;;;;;;5056658;28;20100;-72
2021/06/06 00:15:20;;;;;;;0.20;0.20;;;13.80;99.90;;;;;;5074647;28;20147;-72
2021/06/06 00:17:46;;;;;;;0.15;0.10;;;13.90;99.90;;;;;;5074431;28;20032;-72
2021/06/06 00:20:14;;;;;;;0.00;0.00;;;13.70;99.90;;;;;;5074468;28;20032;-72
2021/06/06 00:22:40;;;;;;;0.00;0.00;;;13.80;99.90;;;;;;5074336;28;20063;-72
2021/06/06 00:25:09;;;;;;;0.10;0.10;;;13.80;99.90;;;;;;5056439;28;20066;-72
2021/06/06 00:27:35;;;;;;;0.00;0.00;;;13.90;99.90;;;;;;5056338;28;20446;-72
2021/06/06 00:30:00;;;;;;;0.00;0.00;;;14.00;99.90;;;;;;5074290;28;20028;-72
2021/06/06 00:32:27;;;;;;;0.00;0.00;;;14.00;99.90;;;;;;5074726;28;20043;-72
2021/06/06 00:34:53;;;;;;;0.00;0.00;;;14.00;99.90;;;;;;5074373;28;20085;-72
2021/06/06 00:37:19;;;;;;;0.00;0.00;;;14.00;99.90;;;;;;5074173;28;20086;-72
2021/06/06 00:39:44;;;;;;;0.20;0.20;;;13.90;99.90;;;;;;5074236;28;20420;-72
2021/06/06 00:42:11;;;;;;;0.00;0.00;;;14.00;99.90;;;;;;5056192;28;20120;-72
2021/06/06 00:44:37;;;;;;;0.00;0.00;;;14.10;99.90;;;;;;5074062;28;20060;-72
2021/06/06 00:47:03;;;;;;;0.00;0.00;;;14.00;99.90;;;;;;5039185;28;20067;-72
2021/06/06 00:49:29;;;;;;;0.00;0.00;;;13.90;99.90;;;;;;5074069;28;20502;-72
2021/06/06 00:51:58;;;;;;;0.00;0.00;;;14.10;99.90;;;;;;5073904;28;20016;-72
2021/06/06 00:54:28;;;;;;;0.00;0.00;;;14.20;99.90;;;;;;5073917;28;20025;-72
2021/06/06 00:57:04;;;;;;;0.05;0.05;;;14.00;99.90;;;;;;5073835;28;20225;-72
2021/06/06 00:59:31;;;;;;;0.20;0.20;;;13.90;99.90;;;;;;5055980;28;20072;-72
2021/06/06 01:01:57;;;;;;;0.10;0.10;;;13.90;99.90;;;;;;5074253;28;20423;-72
2021/06/06 01:04:23;;;;;;;0.00;0.00;;;14.00;99.90;;;;;;5073178;28;20052;-72
2021/06/06 01:06:52;;;;;;;0.10;0.10;;;14.00;99.90;;;;;;5073564;28;20025;-72
2021/06/06 01:09:22;;;;;;;0.00;0.00;;;14.00;99.90;;;;;;5039013;28;20021;-72
2021/06/06 01:12:05;;;;;;;0.00;0.00;;;14.00;99.90;;;;;;5073429;28;20048;-72
2021/06/06 01:14:56;;;;;;;0.05;0.05;;;14.00;99.90;;;;;;5073562;28;20361;-72
2021/06/06 01:17:51;;;;;;;0.10;0.10;;;13.90;99.90;;;;;;5073365;28;20078;-72
2021/06/06 01:20:46;;;;;;;0.17;0.17;;;13.80;99.90;;;;;;5073494;28;20112;-72
2021/06/06 01:23:24;;;;;;;0.00;0.00;;;13.80;99.90;;;;;;5073338;28;20031;-72
2021/06/06 01:25:54;;;;;;;0.00;0.00;;;14.00;99.90;;;;;;5073101;28;20463;-72
2021/06/06 01:28:33;;;;;;;0.00;0.00;;;13.90;99.90;;;;;;5073282;28;20039;-72
2021/06/06 01:31:02;;;;;;;0.10;0.10;;;14.10;99.90;;;;;;5073166;28;20034;-72
2021/06/06 01:33:38;;;;;;;0.00;0.00;;;14.10;99.90;;;;;;5055289;28;20119;-72
2021/06/06 01:36:09;;;;;;;0.00;0.00;;;14.30;99.90;;;;;;5055178;28;20024;-72
2021/06/06 01:38:51;;;;;;;0.00;0.00;;;14.30;99.90;;;;;;5072983;28;20480;-72
2021/06/06 01:41:20;;;;;;;0.00;0.00;;;14.30;99.90;;;;;;5055070;28;20059;-72
2021/06/06 01:43:52;;;;;;;0.00;0.00;;;14.40;99.90;;;;;;5038369;28;20150;-72
2021/06/06 01:46:24;;;;;;;0.10;0.10;;;14.70;99.90;;;;;;5072786;28;20055;-72
2021/06/06 01:48:52;;;;;;;0.00;0.00;;;14.60;99.90;;;;;;5072869;28;20488;-71
2021/06/06 01:51:23;;;;;;;0.00;0.00;;;14.60;99.90;;;;;;5054804;28;20039;-72
2021/06/06 01:53:50;;;;;;;0.10;0.10;;;14.70;99.90;;;;;;5054898;28;20028;-72
2021/06/06 01:56:32;;;;;;;0.00;0.00;;;14.60;99.90;;;;;;5054599;28;20024;-72
2021/06/06 01:59:04;;;;;;;0.00;0.00;;;14.60;99.90;;;;;;5073022;28;20075;-71
2021/06/06 02:01:31;;;;;;;0.00;0.00;;;14.70;99.90;;;;;;5072552;28;20395;-72
2021/06/06 02:03:58;;;;;;;0.00;0.00;;;14.50;99.90;;;;;;5072577;28;20035;-72
2021/06/06 02:06:35;;;;;;;0.00;0.00;;;14.40;99.90;;;;;;5072433;28;20392;-71
2021/06/06 02:09:05;;;;;;;0.00;0.00;;;14.30;99.90;;;;;;5072480;28;20447;-72
2021/06/06 02:11:55;;;;;;;0.00;0.00;;;14.20;99.90;;;;;;5072353;28;20032;-72
2021/06/06 02:14:25;;;;;;;0.00;0.00;;;14.10;99.90;;;;;;5062890;28;20126;-72
2021/06/06 02:16:54;;;;;;;0.00;0.00;;;14.20;99.90;;;;;;5071434;28;20050;-72
2021/06/06 02:19:24;;;;;;;0.00;0.00;;;14.20;99.90;;;;;;5072662;28;20037;-72
2021/06/06 02:21:55;;;;;;;0.00;0.00;;;14.10;99.90;;;;;;5072153;28;20027;-72
2021/06/06 02:24:21;;;;;;;0.00;0.00;;;14.00;99.90;;;;;;5072205;28;20048;-71
2021/06/06 02:27:01;;;;;;;0.00;0.00;;;14.00;99.90;;;;;;5072064;28;20024;-72
2021/06/06 02:29:31;;;;;;;0.00;0.00;;;14.10;99.90;;;;;;5072154;28;20060;-71
2021/06/06 02:32:42;;;;;;;0.10;0.10;;;14.00;99.90;;;;;;5072111;28;20039;-72
2021/06/06 02:35:15;;;;;;;1.02;0.10;;;14.20;99.90;;;;;;4990420;28;20041;-72
2021/06/06 02:38:10;;;;;;;0.00;0.00;;;14.00;99.90;;;;;;4990446;28;20054;-72
2021/06/06 02:40:37;;;;;;;0.00;0.00;;;13.90;99.90;;;;;;5035625;28;20043;-72
2021/06/06 02:43:12;;;;;;;0.60;0.30;;;13.90;99.90;;;;;;5071963;28;20024;-71
2021/06/06 02:45:39;;;;;;;0.00;0.00;;;13.90;99.90;;;;;;5053947;28;20020;-72
2021/06/06 02:48:46;;;;;;;0.52;0.30;;;13.90;99.90;;;;;;5053785;28;20059;-72
2021/06/06 02:51:17;;;;;;;0.00;0.00;;;13.90;99.90;;;;;;5071418;28;20086;-72
2021/06/06 02:53:58;;;;;;;0.00;0.00;;;13.80;99.90;;;;;;5071999;28;20028;-72
2021/06/06 02:56:28;;;;;;;0.10;0.10;;;13.60;99.90;;;;;;5071767;28;20029;-72
2021/06/06 02:58:55;;;;;;;0.15;0.15;;;13.50;99.90;;;;;;5071655;28;20017;-72
2021/06/06 03:01:30;;;;;;;0.10;0.10;;;13.50;99.90;;;;;;5071864;28;20376;-72
2021/06/06 03:03:58;;;;;;;0.00;0.00;;;13.50;99.90;;;;;;5053836;28;20021;-72
2021/06/06 03:06:35;;;;;;;0.00;0.00;;;13.50;99.90;;;;;;5053754;28;20047;-72
2021/06/06 03:09:02;;;;;;;0.00;0.00;;;13.40;99.90;;;;;;5071771;28;20060;-72
2021/06/06 03:11:29;;;;;;;0.00;0.00;;;13.50;99.90;;;;;;5037044;28;20025;-72
2021/06/06 03:14:00;;;;;;;0.00;0.00;;;13.60;99.90;;;;;;5071667;28;20108;-72
2021/06/06 03:16:29;;;;;;;0.10;0.10;;;13.60;99.90;;;;;;5071612;28;20028;-72
2021/06/06 03:18:56;;;;;;;0.65;0.38;;;13.60;99.90;;;;;;5071548;28;20028;-72
2021/06/06 03:21:30;;;;;;;0.00;0.00;;;13.50;99.90;;;;;;5071530;28;20039;-72
2021/06/06 03:24:11;;;;;;;0.10;0.10;;;13.60;99.90;;;;;;5071487;28;20050;-72
2021/06/06 03:26:38;;;;;;;0.00;0.00;;;13.60;99.90;;;;;;5071612;28;20099;-72
2021/06/06 03:29:07;;;;;;;0.00;0.00;;;13.60;99.90;;;;;;5074597;28;20189;-72
2021/06/06 03:31:40;;;;;;;0.05;0.05;;;13.60;99.90;;;;;;5075400;28;20491;-72
2021/06/06 03:34:06;;;;;;;0.00;0.00;;;13.70;99.90;;;;;;5075510;28;20126;-72
2021/06/06 03:36:36;;;;;;;0.00;0.00;;;13.80;99.90;;;;;;5057474;28;20028;-72
2021/06/06 03:39:07;;;;;;;0.00;0.00;;;13.80;99.90;;;;;;5075361;28;20035;-72
2021/06/06 03:41:33;;;;;;;0.00;0.00;;;13.90;99.90;;;;;;5075329;28;20020;-72
2021/06/06 03:43:59;;;;;;;0.00;0.00;;;13.90;99.90;;;;;;5057666;28;20027;-72
2021/06/06 03:46:27;;;;;;;0.00;0.00;;;13.90;99.90;;;;;;5057074;28;20103;-72
2021/06/06 03:48:53;;;;;;;0.00;0.00;;;14.00;99.90;;;;;;5075099;28;20025;-72
2021/06/06 03:51:20;;;;;;;0.00;0.00;;;13.90;99.90;;;;;;5075011;28;20024;-72
2021/06/06 03:53:46;;;;;;;0.40;0.40;;;13.80;99.90;;;;;;5075085;28;20082;-72
2021/06/06 03:56:13;;;;;;;0.00;0.00;;;13.70;99.90;;;;;;5074963;28;20030;-72
2021/06/06 03:58:39;;;;;;;0.00;0.00;;;13.80;99.90;;;;;;5057158;28;20021;-72
2021/06/06 04:01:06;;;;;;;0.03;0.03;;;13.80;99.90;;;;;;5074746;28;20020;-72
2021/06/06 04:03:32;;;;;;;0.13;0.13;;;13.70;99.90;;;;;;5074907;28;20056;-72
2021/06/06 04:05:58;;;;;;;0.20;0.20;;;13.70;99.90;;;;;;5056806;28;20025;-72
2021/06/06 04:08:24;;;;;;;0.00;0.00;;;13.70;99.90;;;;;;5074847;28;20077;-72
2021/06/06 04:10:51;;;;;;;0.15;0.15;;;13.60;99.90;;;;;;5074701;28;20028;-72
2021/06/06 04:13:17;;;;;;;0.00;0.00;;;13.50;99.90;;;;;;5074754;28;20103;-72
2021/06/06 04:15:44;;;;;;;0.10;0.10;;;13.60;99.90;;;;;;5074624;28;20535;-72
2021/06/06 04:18:19;;;;;;;0.47;0.45;;;13.60;99.90;;;;;;5056767;28;20162;-72
2021/06/06 04:20:46;;;;;;;0.00;0.00;;;13.70;99.90;;;;;;5056473;28;20020;-72
2021/06/06 04:23:12;;;;;;;0.00;0.00;;;13.70;99.90;;;;;;5056571;28;20021;-72
2021/06/06 04:25:39;;;;;;;0.00;0.00;;;13.70;99.90;;;;;;5056484;28;20032;-72
2021/06/06 04:28:06;;;;;;;0.00;0.00;;;13.80;99.90;;;;;;5056401;28;20109;-72
2021/06/06 04:30:32;;;;;;;0.00;0.00;;;13.90;99.90;;;;;;5074306;28;20020;-72
2021/06/06 04:32:58;;;;;;;0.00;0.00;;;13.90;99.90;;;;;;5074321;28;20028;-72
2021/06/06 04:35:24;;;;;;;0.00;0.00;;;13.70;99.90;;;;;;5074291;28;20452;-72
2021/06/06 04:37:49;;;;;;;0.32;0.20;;;13.70;99.90;;;;;;5074214;28;20029;-72
2021/06/06 04:40:17;;;;;;;0.00;0.00;;;13.70;99.90;;;;;;5055331;28;20032;-72
2021/06/06 04:42:42;;;;;;;0.00;0.00;;;13.80;99.90;;;;;;5056165;28;20048;-71
2021/06/06 04:45:12;;;;;;;0.03;0.03;;;13.70;99.90;;;;;;5074085;28;20028;-72
2021/06/06 04:47:38;;;;;;;0.00;0.00;;;13.50;99.90;;;;;;5073987;28;20036;-72
2021/06/06 04:50:06;;;;;;;0.00;0.00;;;13.50;99.90;;;;;;5074086;28;20434;-72
2021/06/06 04:52:36;;;;;;;0.20;0.20;;;13.50;99.90;;;;;;5055842;28;20028;-72
2021/06/06 04:55:14;;;;;;;0.00;0.00;;;13.60;99.90;;;;;;5074217;28;20025;-72
2021/06/06 04:57:41;;;;;;;0.00;0.00;;;13.70;99.90;;;;;;5073892;28;20035;-72
2021/06/06 05:00:11;;;;;;;0.00;0.00;;;13.90;99.90;;;;;;5073823;28;20065;-72
2021/06/06 05:02:36;;;;;;;0.10;0.10;;;13.70;99.90;;;;;;5073850;28;20046;-72
2021/06/06 05:05:04;;;;;;;0.50;0.43;;;13.50;99.90;;;;;;5073766;28;20020;-72
2021/06/06 05:07:29;;;;;;;3.20;0.43;;;13.30;99.90;;;;;;5039074;28;20039;-71
2021/06/06 05:09:56;;;;;;;0.00;0.00;;;13.30;99.90;;;;;;5073705;28;20020;-71
2021/06/06 05:12:21;;;;;;;0.55;0.55;;;13.30;99.90;;;;;;5073444;28;20495;-72
2021/06/06 05:14:47;;;;;;;0.40;0.30;;;13.30;99.90;;;;;;5055810;28;20024;-71
2021/06/06 05:17:13;;;;;;;0.35;0.35;;;13.40;99.90;;;;;;5073389;28;20054;-72
2021/06/06 05:19:39;;;;;;;0.13;0.13;;;13.30;99.90;;;;;;5073354;28;20029;-72
2021/06/06 05:22:05;;;;;;;0.08;0.08;;;13.30;99.90;;;;;;5055266;28;20116;-72
2021/06/06 05:24:32;;;;;;;0.00;0.00;;;13.30;99.90;;;;;;5088034;22;20028;-73
2021/06/06 05:26:58;;;;;;;0.20;0.20;;;13.20;99.90;;;;;;5073503;28;20032;-73
2021/06/06 05:29:24;;;;;;;0.98;0.98;;;13.20;99.90;;;;;;5073418;28;20411;-73
2021/06/06 05:31:50;;;;;;;0.20;0.20;;;13.30;99.90;;;;;;5072085;28;20042;-73
2021/06/06 05:34:17;;;;;;;0.00;0.00;;;13.30;99.90;;;;;;5073213;28;20020;-73
2021/06/06 05:36:43;;;;;;;0.20;0.10;;;13.30;99.90;;;;;;5073201;28;20369;-73
2021/06/06 05:39:09;;;;;;;0.00;0.00;;;13.30;99.90;;;;;;5073009;28;20032;-73
2021/06/06 05:41:35;;;;;;;0.20;0.20;;;13.40;99.90;;;;;;5055227;28;20391;-73
2021/06/06 05:44:01;;;;;;;0.03;0.03;;;13.50;99.90;;;;;;5073103;28;20035;-73
2021/06/06 05:46:27;;;;;;;0.00;0.00;;;13.50;99.90;;;;;;5072899;28;20183;-74
2021/06/06 05:48:53;;;;;;;0.00;0.00;;;13.50;99.90;;;;;;5073009;28;20099;-74
2021/06/06 05:51:19;;;;;;;0.00;0.00;;;13.50;99.90;;;;;;5072672;28;20027;-74
2021/06/06 05:53:45;;;;;;;0.45;0.00;;;13.60;99.90;;;;;;5072872;28;20024;-74
2021/06/06 05:56:11;;;;;;;0.10;0.10;;;13.60;99.90;;;;;;5072714;28;20021;-72
2021/06/06 05:58:39;;;;;;;0.10;0.10;;;13.60;99.90;;;;;;5071464;28;20028;-74
2021/06/06 06:01:06;;;;;;;0.10;0.10;;;13.60;99.90;;;;;;5071325;28;20124;-74
2021/06/06 06:03:32;;;;;;;0.10;0.10;;;13.70;99.90;;;;;;5072905;28;20025;-74
2021/06/06 06:05:58;;;;;;;0.00;0.00;;;13.60;99.90;;;;;;5072531;28;20530;-74
2021/06/06 06:08:30;;;;;;;0.00;0.00;;;13.60;99.90;;;;;;5071450;28;20411;-74
2021/06/06 06:10:57;;;;;;;0.00;0.00;;;13.80;99.90;;;;;;5052589;28;20031;-74
2021/06/06 06:13:25;;;;;;;0.00;0.00;;;13.90;99.90;;;;;;5034714;28;20074;-74
2021/06/06 06:15:51;;;;;;;0.00;0.00;;;14.00;99.90;;;;;;5052511;28;20082;-74
2021/06/06 06:18:22;;;;;;;0.00;0.00;;;14.00;99.90;;;;;;5052444;28;20025;-74
2021/06/06 06:20:48;;;;;;;0.00;0.00;;;14.10;99.90;;;;;;5051104;28;20028;-74
2021/06/06 06:23:14;;;;;;;0.00;0.00;;;14.20;99.90;;;;;;5066503;28;20020;-74
2021/06/06 06:25:40;;;;;;;0.00;0.00;;;14.40;99.90;;;;;;5072360;28;20051;-74
2021/06/06 06:28:06;;;;;;;0.20;0.20;;;14.40;99.90;;;;;;5070911;28;20016;-74
2021/06/06 06:30:34;;;;;;;0.08;0.08;;;14.30;99.90;;;;;;5054080;28;20021;-74
2021/06/06 06:33:00;;;;;;;0.00;0.00;;;14.10;99.90;;;;;;5058150;28;20033;-74
2021/06/06 06:35:27;;;;;;;0.00;0.00;;;14.00;99.90;;;;;;5051007;28;20108;-73
2021/06/06 06:37:54;;;;;;;0.10;0.10;;;13.90;99.90;;;;;;5052970;28;20037;-74
2021/06/06 06:40:21;;;;;;;0.17;0.17;;;13.80;99.90;;;;;;5071748;28;20472;-74
2021/06/06 06:42:47;;;;;;;0.00;0.00;;;13.80;99.90;;;;;;5072105;28;20527;-74
2021/06/06 06:45:16;;;;;;;0.00;0.00;;;13.80;99.90;;;;;;5072128;28;20476;-74
2021/06/06 06:47:41;;;;;;;0.28;0.20;;;13.90;99.90;;;;;;5072077;28;20027;-74
2021/06/06 06:50:09;;;;;;;0.10;0.10;;;13.90;99.90;;;;;;5072120;28;20024;-74
2021/06/06 06:52:39;;;;;;;0.40;0.08;;;13.80;99.90;;;;;;5070845;28;20028;-74
2021/06/06 06:55:07;;;;;;;0.00;0.00;;;13.80;99.90;;;;;;5072060;28;20024;-74
2021/06/06 06:57:33;;;;;;;0.05;0.05;;;13.80;99.90;;;;;;5070442;28;20024;-74
2021/06/06 06:59:59;;;;;;;0.00;0.00;;;13.90;99.90;;;;;;5070586;28;20028;-74
2021/06/06 07:02:25;;;;;;;0.40;0.22;;;13.90;99.90;;;;;;5070094;28;20044;-74
2021/06/06 07:04:51;;;;;;;0.00;0.00;;;13.70;99.90;;;;;;5070399;28;20029;-74
2021/06/06 07:07:18;;;;;;;0.32;0.32;;;13.70;99.90;;;;;;5070086;28;20472;-74
2021/06/06 07:09:44;;;;;;;0.00;0.00;;;13.70;99.90;;;;;;5068795;28;20387;-74
2021/06/06 07:12:11;;;;;;;0.00;0.00;;;13.60;99.90;;;;;;5069362;28;20480;-74
2021/06/06 07:14:36;;;;;;;0.00;0.00;;;13.70;99.90;;;;;;5071327;28;20025;-73
2021/06/06 07:17:03;;;;;;;0.10;0.03;;;13.70;99.90;;;;;;5070453;28;20031;-73
2021/06/06 07:19:29;;;;;;;0.00;0.00;;;13.90;99.90;;;;;;5071845;28;20573;-73
2021/06/06 07:21:55;;;;;;;0.00;0.00;;;14.00;99.90;;;;;;5071844;28;20039;-73
2021/06/06 07:24:21;;;;;;;0.00;0.00;;;14.00;99.90;;;;;;5071889;28;20031;-75
2021/06/06 07:26:49;;;;;;;0.00;0.00;;;14.00;99.90;;;;;;5071617;28;20063;-75
2021/06/06 07:29:17;;;;;;;0.00;0.00;;;14.00;99.90;;;;;;5070650;28;20028;-74
2021/06/06 07:31:45;;;;;;;0.00;0.00;;;14.10;99.90;;;;;;5071764;28;20028;-74
2021/06/06 07:34:13;;;;;;;0.00;0.00;;;14.30;99.90;;;;;;5071887;28;20020;-75
2021/06/06 07:36:38;;;;;;;1.65;0.10;;;14.20;99.90;;;;;;5071471;28;20027;-74
2021/06/06 07:39:05;;;;;;;0.00;0.00;;;14.00;99.90;;;;;;5053694;28;20115;-75
2021/06/06 07:41:31;;;;;;;0.00;0.00;;;14.00;99.90;;;;;;5070216;28;20040;-74
2021/06/06 07:43:57;;;;;;;0.00;0.00;;;13.90;99.90;;;;;;5070358;28;20025;-75
2021/06/06 07:46:24;;;;;;;0.08;0.08;;;13.90;99.90;;;;;;5071646;28;20066;-74
2021/06/06 07:48:49;;;;;;;0.00;0.00;;;14.00;99.90;;;;;;5071584;28;20071;-74
2021/06/06 07:51:15;;;;;;;0.00;0.00;;;14.00;99.90;;;;;;5071027;28;20415;-74
2021/06/06 07:53:41;;;;;;;0.00;0.00;;;14.10;99.90;;;;;;5070184;28;20549;-74
2021/06/06 12:54:38;;;;;;;0.00;0.00;;;18.00;99.90;;;;;;5146423;27;20380;-71
2021/06/06 12:57:35;;;;;;;0.00;0.00;;;18.00;99.90;;;;;;5130099;28;20497;-72
2021/06/06 13:00:18;;;;;;;0.08;0.08;;;17.80;99.90;;;;;;5125428;27;20038;-72
2021/06/06 13:02:45;;;;;;;0.15;0.15;;;18.00;99.90;;;;;;5128841;28;20534;-72
2021/06/06 13:05:28;;;;;;;0.03;0.03;;;18.10;99.90;;;;;;5128925;28;20026;-72
2021/06/06 13:07:57;;;;;;;0.00;0.00;;;18.20;99.90;;;;;;5129755;28;20038;-71
2021/06/06 13:10:29;;;;;;;0.10;0.10;;;18.30;99.90;;;;;;5130031;27;20492;-72
2021/06/06 13:12:56;;;;;;;0.00;0.00;;;18.30;99.90;;;;;;5129706;28;20055;-71
2021/06/06 13:15:35;;;;;;;0.22;0.22;;;18.60;99.90;;;;;;5128639;28;20023;-72
2021/06/06 13:18:24;;;;;;;0.00;0.00;;;18.40;99.90;;;;;;5129813;27;20023;-72
2021/06/06 13:20:56;;;;;;;0.00;0.00;;;18.70;99.90;;;;;;5129275;28;20054;-72
2021/06/06 13:23:37;;;;;;;0.00;0.00;;;19.00;99.90;;;;;;5129745;27;20110;-72
2021/06/06 13:26:09;;;;;;;0.00;0.00;;;19.00;99.90;;;;;;5129486;27;20522;-71
2021/06/06 13:28:54;;;;;;;0.05;0.05;;;18.90;99.90;;;;;;5129745;27;20018;-72
2021/06/06 13:31:39;;;;;;;0.32;0.32;;;18.90;99.90;;;;;;5129635;27;20042;-74
2021/06/06 13:34:08;;;;;;;0.10;0.10;;;18.90;99.90;;;;;;5129521;27;20019;-72
2021/06/06 13:36:36;;;;;;;0.00;0.00;;;18.80;99.90;;;;;;5129388;27;20467;-74
2021/06/06 13:39:27;;;;;;;0.00;0.00;;;18.80;99.90;;;;;;5128156;28;20030;-71
2021/06/06 13:41:55;;;;;;;0.00;0.00;;;18.70;99.90;;;;;;5124187;28;20400;-71
2021/06/06 13:44:21;;;;;;;0.10;0.10;;;18.70;99.90;;;;;;5128030;28;20051;-71
2021/06/06 13:46:48;;;;;;;0.20;0.20;;;18.70;99.90;;;;;;5129239;27;20441;-71
2021/06/06 13:49:15;;;;;;;0.00;0.00;;;18.70;99.90;;;;;;5128000;28;20023;-71
2021/06/06 13:51:42;;;;;;;0.10;0.10;;;18.70;99.90;;;;;;5127977;28;20481;-72
2021/06/06 13:54:09;;;;;;;0.03;0.03;;;18.60;99.90;;;;;;5128943;27;20038;-72
2021/06/06 14:07:34;;;;;;;0.22;0.20;;;18.30;99.90;;;;;;5146211;27;20412;-72
2021/06/06 14:09:59;;;;;;;0.00;0.00;;;18.20;99.90;;;;;;5130182;27;20042;-71
2021/06/06 14:12:25;;;;;;;0.20;0.20;;;18.10;99.90;;;;;;5130150;28;20023;-72
2021/06/06 14:14:51;;;;;;;0.00;0.00;;;18.10;99.90;;;;;;5130198;28;20115;-72
2021/06/06 14:17:17;;;;;;;0.00;0.00;;;18.00;99.90;;;;;;5129893;28;20036;-72
2021/06/06 14:19:42;;;;;;;0.00;0.00;;;18.20;99.90;;;;;;5130206;28;20024;-71
2021/06/06 14:22:08;;;;;;;0.00;0.00;;;18.20;99.90;;;;;;5129963;27;20024;-72
2021/06/06 14:24:36;;;;;;;0.00;0.00;;;18.20;99.90;;;;;;5130008;27;20019;-72
2021/06/06 14:27:06;;;;;;;0.00;0.00;;;18.00;99.90;;;;;;5129693;27;20428;-72
2021/06/06 14:29:36;;;;;;;0.15;0.15;;;18.20;99.90;;;;;;5129924;27;20113;-72
2021/06/06 14:32:02;;;;;;;0.10;0.10;;;17.90;99.90;;;;;;5129559;27;20031;-71
2021/06/06 14:34:28;;;;;;;0.00;0.00;;;17.80;99.90;;;;;;5129753;27;20108;-72
2021/06/06 14:36:54;;;;;;;0.00;0.00;;;17.80;99.90;;;;;;5128334;28;20065;-72
2021/06/06 14:39:21;;;;;;;0.10;0.10;;;18.00;99.90;;;;;;5128541;28;20172;-72
2021/06/06 14:41:49;;;;;;;0.10;0.10;;;18.20;99.90;;;;;;5129591;27;20028;-72
2021/06/06 14:44:16;;;;;;;0.00;0.00;;;18.30;99.90;;;;;;5129419;27;20478;-72
2021/06/06 14:46:42;;;;;;;0.00;0.00;;;18.00;99.90;;;;;;5129359;27;20024;-71
2021/06/06 14:49:07;;;;;;;0.10;0.10;;;18.10;99.90;;;;;;5129412;27;20080;-71
2021/06/06 14:51:37;;;;;;;0.00;0.00;;;18.20;99.90;;;;;;5129153;27;20027;-72
2021/06/06 14:54:03;;;;;;;0.20;0.20;;;18.30;99.90;;;;;;5129516;27;20028;-72
2021/06/06 14:56:31;;;;;;;0.00;0.00;;;18.00;99.90;;;;;;5129320;27;20031;-76
2021/06/06 14:58:57;;;;;;;0.25;0.10;;;18.10;99.90;;;;;;5129286;27;20047;-77
2021/06/06 15:01:24;;;;;;;0.00;0.00;;;18.30;99.90;;;;;;5110843;28;20058;-76
2021/06/06 15:03:51;;;;;;;0.00;0.00;;;18.10;99.90;;;;;;5127922;28;20031;-76
2021/06/06 15:06:19;;;;;;;0.00;0.00;;;18.20;99.90;;;;;;5127504;28;20028;-75
2021/06/06 15:08:44;;;;;;;0.13;0.00;;;18.40;99.90;;;;;;5128020;28;20019;-76
2021/06/06 15:11:11;;;;;;;0.00;0.00;;;18.60;99.90;;;;;;5127686;28;20537;-76
2021/06/06 15:13:39;;;;;;;0.10;0.10;;;18.80;99.90;;;;;;5110632;28;20019;-76
2021/06/06 15:16:07;;;;;;;0.00;0.00;;;18.90;99.90;;;;;;5129027;27;20016;-76
2021/06/06 15:18:33;;;;;;;0.10;0.10;;;18.90;99.90;;;;;;5117843;27;20496;-76
2021/06/06 15:21:04;;;;;;;0.00;0.00;;;18.90;99.90;;;;;;5115203;28;20403;-75
2021/06/06 15:23:34;;;;;;;0.00;0.00;;;18.90;99.90;;;;;;5115352;28;20084;-76
2021/06/06 15:26:07;;;;;;;0.00;0.00;;;18.70;99.90;;;;;;5113577;28;20015;-76
2021/06/06 15:28:36;;;;;;;0.10;0.10;;;18.60;99.90;;;;;;5113937;28;20027;-78
2021/06/06 15:31:05;;;;;;;0.00;0.00;;;18.80;99.90;;;;;;5113721;28;20023;-76
2021/06/06 15:33:31;;;;;;;0.10;0.10;;;18.90;99.90;;;;;;5115018;28;20027;-75
2021/06/06 15:35:59;;;;;;;0.00;0.00;;;18.90;99.90;;;;;;5113593;28;20028;-76
2021/06/06 15:38:26;;;;;;;0.80;0.63;;;19.00;99.90;;;;;;5114869;28;20047;-75
2021/06/06 15:40:55;;;;;;;0.10;0.10;;;18.90;99.90;;;;;;5096411;28;20024;-76
2021/06/06 15:43:23;;;;;;;0.00;0.00;;;18.60;99.90;;;;;;5113630;28;20116;-76
2021/06/06 15:45:50;;;;;;;0.05;0.05;;;18.40;99.90;;;;;;5113109;28;20122;-76
2021/06/06 15:48:19;;;;;;;0.00;0.00;;;18.30;99.90;;;;;;5114719;28;20016;-78
2021/06/06 15:50:44;;;;;;;0.00;0.00;;;18.40;99.90;;;;;;5114688;28;20020;-76
2021/06/06 15:53:15;;;;;;;0.00;0.00;;;18.40;99.90;;;;;;5114508;28;20035;-76
2021/06/06 15:55:41;;;;;;;0.00;0.00;;;18.40;99.90;;;;;;5114711;28;20020;-75
2021/06/06 15:58:09;;;;;;;0.00;0.00;;;18.50;99.90;;;;;;5115082;28;20423;-76
2021/06/06 16:00:35;;;;;;;0.15;0.15;;;18.70;99.90;;;;;;5113389;28;20024;-76
2021/06/06 16:03:06;;;;;;;0.00;0.00;;;18.30;99.90;;;;;;5114488;28;20019;-75
2021/06/06 16:05:33;;;;;;;0.08;0.08;;;18.00;99.90;;;;;;5112849;28;20028;-75
2021/06/06 16:07:59;;;;;;;0.10;0.10;;;18.00;99.90;;;;;;5112970;28;20247;-75
2021/06/06 16:10:29;;;;;;;0.22;0.22;;;18.20;99.90;;;;;;5114434;28;20016;-76
2021/06/06 16:12:57;;;;;;;0.10;0.10;;;18.20;99.90;;;;;;5114271;28;20026;-76
2021/06/06 16:15:25;;;;;;;0.00;0.00;;;18.20;99.90;;;;;;5114301;28;20098;-76
2021/06/06 16:17:50;;;;;;;0.00;0.00;;;18.40;99.90;;;;;;5113983;28;20352;-77
2021/06/06 16:20:16;;;;;;;0.00;0.00;;;18.40;99.90;;;;;;5113994;28;20012;-76
2021/06/06 16:22:43;;;;;;;0.00;0.00;;;18.30;99.90;;;;;;5112920;28;20020;-75
2021/06/06 16:25:13;;;;;;;0.00;0.00;;;18.30;99.90;;;;;;5114035;28;20030;-77
2021/06/06 16:27:39;;;;;;;0.00;0.00;;;18.50;99.90;;;;;;5113920;28;20020;-76
2021/06/06 16:30:07;;;;;;;0.10;0.10;;;18.50;99.90;;;;;;5112977;28;20018;-76
2021/06/06 16:32:33;;;;;;;0.10;0.10;;;18.50;99.90;;;;;;5113753;28;20023;-76
2021/06/06 16:34:59;;;;;;;0.00;0.00;;;18.10;99.90;;;;;;5112536;28;20054;-76
2021/06/06 16:37:24;;;;;;;0.10;0.10;;;18.20;99.90;;;;;;5113457;28;20216;-76
2021/06/06 16:39:50;;;;;;;0.00;0.00;;;18.10;99.90;;;;;;5095357;28;20023;-76
2021/06/06 16:42:16;;;;;;;0.30;0.15;;;18.00;99.90;;;;;;5113570;28;20015;-76
2021/06/06 16:44:42;;;;;;;0.05;0.05;;;17.80;99.90;;;;;;5112373;28;20479;-76
2021/06/06 16:47:07;;;;;;;0.00;0.00;;;17.80;99.90;;;;;;5113222;28;20043;-76
2021/06/06 16:49:33;;;;;;;0.00;0.00;;;17.80;99.90;;;;;;5113486;28;20099;-77
2021/06/06 16:51:59;;;;;;;0.00;0.00;;;17.90;99.90;;;;;;5113628;28;20119;-75
2021/06/06 16:54:24;;;;;;;0.00;0.00;;;18.00;99.90;;;;;;5112128;28;20106;-76
2021/06/06 16:56:50;;;;;;;0.00;0.00;;;18.00;99.90;;;;;;5113244;28;20028;-76
2021/06/06 16:59:17;;;;;;;0.20;0.20;;;18.10;99.90;;;;;;5112197;28;20030;-75
2021/06/06 17:01:43;;;;;;;0.10;0.10;;;18.10;99.90;;;;;;5112352;28;20084;-76
2021/06/06 17:04:09;;;;;;;0.03;0.03;;;18.30;99.90;;;;;;5111810;28;20423;-75
2021/06/06 17:06:35;;;;;;;0.00;0.00;;;18.10;99.90;;;;;;5111103;28;20439;-75
2021/06/06 17:09:03;;;;;;;0.00;0.00;;;18.00;99.90;;;;;;5113371;28;20065;-76
2021/06/06 17:11:29;;;;;;;0.00;0.00;;;18.20;99.90;;;;;;5112940;28;20371;-76
2021/06/06 17:13:56;;;;;;;0.00;0.00;;;18.20;99.90;;;;;;5113286;28;20034;-76
2021/06/06 17:16:24;;;;;;;0.10;0.10;;;18.00;99.90;;;;;;5112905;28;20027;-75
2021/06/06 17:18:50;;;;;;;0.00;0.00;;;17.80;99.90;;;;;;5112650;28;20024;-76
2021/06/06 17:21:18;;;;;;;0.10;0.10;;;17.90;99.90;;;;;;5112812;28;20031;-77
2021/06/06 17:23:50;;;;;;;0.00;0.00;;;18.00;99.90;;;;;;5112984;28;20024;-76
2021/06/06 17:26:17;;;;;;;;;;;17.90;99.90;;;;;;5113140;28;20016;-77
2021/06/06 17:28:43;;;;;;;0.00;0.00;;;17.80;99.90;;;;;;5112917;28;19904;-76
2021/06/06 17:31:10;;;;;;;0.00;0.00;;;17.80;99.90;;;;;;5093517;22;20453;-74
2021/06/06 17:33:36;;;;;;;0.00;0.00;;;17.90;99.90;;;;;;5070801;28;20024;-74
2021/06/06 17:36:03;;;;;;;0.52;0.20;;;17.80;99.90;;;;;;5069964;28;20376;-75
2021/06/06 17:38:30;;;;;;;0.00;0.00;;;17.60;99.90;;;;;;5071565;28;20028;-75
2021/06/06 17:40:58;;;;;;;0.00;0.00;;;17.40;99.90;;;;;;5071383;28;20506;-75
2021/06/06 17:43:26;;;;;;;0.10;0.10;;;17.40;99.90;;;;;;5073928;28;20484;-75
2021/06/06 17:45:53;;;;;;;0.00;0.00;;;17.60;99.90;;;;;;5091815;28;20035;-75
2021/06/06 17:48:20;;;;;;;0.00;0.00;;;17.80;99.90;;;;;;5092129;28;20467;-75
2021/06/06 17:50:46;;;;;;;0.00;0.00;;;17.70;99.90;;;;;;5092209;28;20379;-75
2021/06/06 17:53:15;;;;;;;0.00;0.00;;;17.50;99.90;;;;;;5073798;28;20016;-75
2021/06/06 17:55:44;;;;;;;0.00;0.00;;;17.30;99.90;;;;;;5091077;28;20478;-75
2021/06/06 17:58:23;;;;;;;0.00;0.00;;;17.40;99.90;;;;;;5069918;28;20067;-75
2021/06/06 18:00:49;;;;;;;0.17;0.10;;;17.40;99.90;;;;;;5072213;28;20023;-75
2021/06/06 18:03:16;;;;;;;0.00;0.00;;;17.20;99.90;;;;;;5071869;28;20027;-75
2021/06/06 18:05:43;;;;;;;0.00;0.00;;;17.40;99.90;;;;;;5077264;28;20031;-75